New Lenox, Illinois
Current Conditions -  °F | °C
As of 1:15 PM on Thursday 30 Oct 2014 (Local Time) from KLOT Reporting Station
Overcast Overcast  
Wind Chill: 46°   Ceiling: 10000
Heat Index: 49°   Visibility: 10mi
Dew Point: 34°   Wind: 8mph
Humidity: 56%   Direction: 230°SW
Pressure: 30.09"   Gusts: NA
Location:  41.51°N, 87.97°W
Report Text: KLOT 301815Z AUTO 23007KT 10SM SCT033 OVC100 10/01 A3009 RMK AO2 T00960011
Loading
Personal Weather Stations






























Interactive Weather Map
Tropical Storm Tracking
New forecast layout! Learn more

10-Day Weather Forecast

Advertisements
Track Severe Weather on mobile